sensor_id;sensor_type;location;lat;lon;timestamp;P1;durP1;ratioP1;P2;durP2;ratioP2
42124;SDS011;27787;44.594;11.046;2023-02-18T00:02:17;39.90;;;18.88;;
42124;SDS011;27787;44.594;11.046;2023-02-18T00:05:01;47.38;;;20.77;;
42124;SDS011;27787;44.594;11.046;2023-02-18T00:07:46;51.13;;;22.88;;
42124;SDS011;27787;44.594;11.046;2023-02-18T00:10:32;44.85;;;20.90;;
42124;SDS011;27787;44.594;11.046;2023-02-18T00:13:16;47.72;;;22.20;;
42124;SDS011;27787;44.594;11.046;2023-02-18T00:16:03;44.60;;;20.67;;
42124;SDS011;27787;44.594;11.046;2023-02-18T00:18:49;44.40;;;20.23;;
42124;SDS011;27787;44.594;11.046;2023-02-18T00:21:34;42.05;;;20.63;;
42124;SDS011;27787;44.594;11.046;2023-02-18T00:24:19;48.42;;;21.27;;
42124;SDS011;27787;44.594;11.046;2023-02-18T00:27:03;46.60;;;21.08;;
42124;SDS011;27787;44.594;11.046;2023-02-18T00:29:47;43.97;;;21.15;;
42124;SDS011;27787;44.594;11.046;2023-02-18T00:32:31;49.42;;;21.63;;
42124;SDS011;27787;44.594;11.046;2023-02-18T00:35:17;40.30;;;20.45;;
42124;SDS011;27787;44.594;11.046;2023-02-18T00:38:02;45.97;;;21.65;;
42124;SDS011;27787;44.594;11.046;2023-02-18T00:40:46;43.88;;;20.90;;
42124;SDS011;27787;44.594;11.046;2023-02-18T00:46:15;44.65;;;20.40;;
42124;SDS011;27787;44.594;11.046;2023-02-18T00:49:00;52.30;;;20.58;;
42124;SDS011;27787;44.594;11.046;2023-02-18T00:51:45;48.35;;;20.65;;
42124;SDS011;27787;44.594;11.046;2023-02-18T00:54:28;45.10;;;20.83;;
42124;SDS011;27787;44.594;11.046;2023-02-18T00:57:12;43.33;;;20.42;;
42124;SDS011;27787;44.594;11.046;2023-02-18T00:59:56;55.58;;;22.33;;
42124;SDS011;27787;44.594;11.046;2023-02-18T01:02:40;45.85;;;21.83;;
42124;SDS011;27787;44.594;11.046;2023-02-18T01:05:24;43.72;;;20.92;;
42124;SDS011;27787;44.594;11.046;2023-02-18T01:08:09;49.80;;;21.52;;
42124;SDS011;27787;44.594;11.046;2023-02-18T01:10:54;46.03;;;21.77;;
42124;SDS011;27787;44.594;11.046;2023-02-18T01:13:40;48.90;;;21.52;;
42124;SDS011;27787;44.594;11.046;2023-02-18T01:16:25;48.83;;;22.27;;
42124;SDS011;27787;44.594;11.046;2023-02-18T01:19:09;47.88;;;22.33;;
42124;SDS011;27787;44.594;11.046;2023-02-18T01:24:39;47.50;;;20.98;;
42124;SDS011;27787;44.594;11.046;2023-02-18T01:27:23;52.78;;;22.27;;
42124;SDS011;27787;44.594;11.046;2023-02-18T01:30:08;49.35;;;21.35;;
42124;SDS011;27787;44.594;11.046;2023-02-18T01:32:56;46.13;;;21.67;;
42124;SDS011;27787;44.594;11.046;2023-02-18T01:35:40;50.22;;;22.23;;
42124;SDS011;27787;44.594;11.046;2023-02-18T01:38:24;43.20;;;20.42;;
42124;SDS011;27787;44.594;11.046;2023-02-18T01:41:09;47.25;;;23.13;;
42124;SDS011;27787;44.594;11.046;2023-02-18T01:47:02;60.40;;;24.08;;
42124;SDS011;27787;44.594;11.046;2023-02-18T01:49:47;51.38;;;24.08;;
42124;SDS011;27787;44.594;11.046;2023-02-18T01:52:35;55.42;;;24.85;;
42124;SDS011;27787;44.594;11.046;2023-02-18T01:55:19;46.97;;;21.52;;
42124;SDS011;27787;44.594;11.046;2023-02-18T01:58:03;47.25;;;22.05;;
42124;SDS011;27787;44.594;11.046;2023-02-18T02:00:48;45.72;;;21.50;;
42124;SDS011;27787;44.594;11.046;2023-02-18T02:03:32;48.00;;;22.00;;
42124;SDS011;27787;44.594;11.046;2023-02-18T02:06:17;49.63;;;22.92;;
42124;SDS011;27787;44.594;11.046;2023-02-18T02:09:08;50.80;;;22.80;;
42124;SDS011;27787;44.594;11.046;2023-02-18T02:33:05;51.42;;;22.58;;
42124;SDS011;27787;44.594;11.046;2023-02-18T02:36:11;45.28;;;21.95;;
42124;SDS011;27787;44.594;11.046;2023-02-18T02:39:01;54.67;;;21.55;;
42124;SDS011;27787;44.594;11.046;2023-02-18T02:41:54;47.40;;;22.50;;
42124;SDS011;27787;44.594;11.046;2023-02-18T02:53:22;46.03;;;20.17;;
42124;SDS011;27787;44.594;11.046;2023-02-18T02:56:17;46.75;;;21.20;;
42124;SDS011;27787;44.594;11.046;2023-02-18T02:59:05;43.95;;;19.67;;
42124;SDS011;27787;44.594;11.046;2023-02-18T03:02:06;44.70;;;21.08;;
42124;SDS011;27787;44.594;11.046;2023-02-18T03:05:09;43.30;;;20.77;;
42124;SDS011;27787;44.594;11.046;2023-02-18T03:08:07;42.35;;;19.85;;
42124;SDS011;27787;44.594;11.046;2023-02-18T03:11:15;43.72;;;20.63;;
42124;SDS011;27787;44.594;11.046;2023-02-18T03:17:24;47.85;;;21.48;;
42124;SDS011;27787;44.594;11.046;2023-02-18T03:20:15;52.85;;;21.35;;
42124;SDS011;27787;44.594;11.046;2023-02-18T03:23:10;56.88;;;23.98;;
42124;SDS011;27787;44.594;11.046;2023-02-18T03:25:59;44.38;;;21.20;;
42124;SDS011;27787;44.594;11.046;2023-02-18T03:28:47;46.63;;;22.75;;
42124;SDS011;27787;44.594;11.046;2023-02-18T03:31:34;44.90;;;21.67;;
42124;SDS011;27787;44.594;11.046;2023-02-18T03:34:29;48.10;;;22.55;;
42124;SDS011;27787;44.594;11.046;2023-02-18T03:37:17;47.65;;;21.33;;
42124;SDS011;27787;44.594;11.046;2023-02-18T03:40:05;43.38;;;20.35;;
42124;SDS011;27787;44.594;11.046;2023-02-18T03:45:35;44.72;;;20.02;;
42124;SDS011;27787;44.594;11.046;2023-02-18T03:48:19;47.03;;;20.80;;
42124;SDS011;27787;44.594;11.046;2023-02-18T03:51:04;44.67;;;20.33;;
42124;SDS011;27787;44.594;11.046;2023-02-18T03:53:48;42.08;;;20.17;;
42124;SDS011;27787;44.594;11.046;2023-02-18T03:56:34;43.22;;;20.75;;
42124;SDS011;27787;44.594;11.046;2023-02-18T03:59:19;47.95;;;19.83;;
42124;SDS011;27787;44.594;11.046;2023-02-18T04:02:04;43.92;;;19.45;;
42124;SDS011;27787;44.594;11.046;2023-02-18T04:04:48;46.35;;;21.60;;
42124;SDS011;27787;44.594;11.046;2023-02-18T04:07:34;42.42;;;20.33;;
42124;SDS011;27787;44.594;11.046;2023-02-18T04:10:18;45.90;;;20.55;;
42124;SDS011;27787;44.594;11.046;2023-02-18T04:13:03;43.63;;;19.35;;
42124;SDS011;27787;44.594;11.046;2023-02-18T04:15:49;46.20;;;20.23;;
42124;SDS011;27787;44.594;11.046;2023-02-18T04:21:18;44.88;;;19.75;;
42124;SDS011;27787;44.594;11.046;2023-02-18T04:24:02;45.30;;;20.52;;
42124;SDS011;27787;44.594;11.046;2023-02-18T04:26:46;45.47;;;20.02;;
42124;SDS011;27787;44.594;11.046;2023-02-18T04:29:30;44.70;;;20.38;;
42124;SDS011;27787;44.594;11.046;2023-02-18T04:32:14;49.47;;;20.30;;
42124;SDS011;27787;44.594;11.046;2023-02-18T04:34:59;40.40;;;20.25;;
42124;SDS011;27787;44.594;11.046;2023-02-18T04:37:43;45.95;;;21.05;;
42124;SDS011;27787;44.594;11.046;2023-02-18T04:40:27;42.95;;;20.02;;
42124;SDS011;27787;44.594;11.046;2023-02-18T04:45:57;44.78;;;18.88;;
42124;SDS011;27787;44.594;11.046;2023-02-18T04:48:41;42.08;;;19.88;;
42124;SDS011;27787;44.594;11.046;2023-02-18T04:51:25;40.40;;;19.00;;
42124;SDS011;27787;44.594;11.046;2023-02-18T04:54:09;41.97;;;18.42;;
42124;SDS011;27787;44.594;11.046;2023-02-18T04:56:53;44.60;;;17.85;;
42124;SDS011;27787;44.594;11.046;2023-02-18T04:59:38;40.22;;;17.92;;
42124;SDS011;27787;44.594;11.046;2023-02-18T05:02:22;31.95;;;16.88;;
42124;SDS011;27787;44.594;11.046;2023-02-18T05:05:07;37.03;;;16.85;;
42124;SDS011;27787;44.594;11.046;2023-02-18T05:07:51;33.55;;;16.60;;
42124;SDS011;27787;44.594;11.046;2023-02-18T05:10:36;38.45;;;17.83;;
42124;SDS011;27787;44.594;11.046;2023-02-18T05:16:05;37.17;;;16.58;;
42124;SDS011;27787;44.594;11.046;2023-02-18T05:18:50;33.55;;;17.30;;
42124;SDS011;27787;44.594;11.046;2023-02-18T05:21:34;35.88;;;15.95;;
42124;SDS011;27787;44.594;11.046;2023-02-18T05:24:18;37.38;;;16.45;;
42124;SDS011;27787;44.594;11.046;2023-02-18T05:27:02;33.63;;;14.85;;
42124;SDS011;27787;44.594;11.046;2023-02-18T05:29:46;29.98;;;14.60;;
42124;SDS011;27787;44.594;11.046;2023-02-18T05:32:30;30.38;;;13.57;;
42124;SDS011;27787;44.594;11.046;2023-02-18T05:35:15;34.22;;;15.52;;
42124;SDS011;27787;44.594;11.046;2023-02-18T05:37:59;32.28;;;14.55;;
42124;SDS011;27787;44.594;11.046;2023-02-18T05:40:44;31.77;;;14.57;;
42124;SDS011;27787;44.594;11.046;2023-02-18T05:43:28;30.15;;;13.80;;
42124;SDS011;27787;44.594;11.046;2023-02-18T05:46:12;28.42;;;14.30;;
42124;SDS011;27787;44.594;11.046;2023-02-18T05:48:56;32.58;;;12.85;;
42124;SDS011;27787;44.594;11.046;2023-02-18T05:51:41;28.17;;;12.77;;
42124;SDS011;27787;44.594;11.046;2023-02-18T05:54:25;29.42;;;11.45;;
42124;SDS011;27787;44.594;11.046;2023-02-18T05:57:09;27.23;;;12.57;;
42124;SDS011;27787;44.594;11.046;2023-02-18T05:59:56;25.30;;;11.43;;
42124;SDS011;27787;44.594;11.046;2023-02-18T06:02:40;21.98;;;10.88;;
42124;SDS011;27787;44.594;11.046;2023-02-18T06:05:24;21.52;;;10.23;;
42124;SDS011;27787;44.594;11.046;2023-02-18T06:08:09;21.63;;;11.07;;
42124;SDS011;27787;44.594;11.046;2023-02-18T06:10:53;21.63;;;10.82;;
42124;SDS011;27787;44.594;11.046;2023-02-18T06:13:37;26.25;;;12.25;;
42124;SDS011;27787;44.594;11.046;2023-02-18T06:16:21;28.33;;;11.45;;
42124;SDS011;27787;44.594;11.046;2023-02-18T06:21:51;25.13;;;11.43;;
42124;SDS011;27787;44.594;11.046;2023-02-18T06:24:36;32.75;;;12.48;;
42124;SDS011;27787;44.594;11.046;2023-02-18T06:27:20;26.17;;;11.90;;
42124;SDS011;27787;44.594;11.046;2023-02-18T06:30:05;25.33;;;12.27;;
42124;SDS011;27787;44.594;11.046;2023-02-18T06:32:50;28.58;;;12.68;;
42124;SDS011;27787;44.594;11.046;2023-02-18T06:35:34;30.60;;;13.38;;
42124;SDS011;27787;44.594;11.046;2023-02-18T06:38:19;25.40;;;13.10;;
42124;SDS011;27787;44.594;11.046;2023-02-18T06:41:03;26.35;;;11.68;;
42124;SDS011;27787;44.594;11.046;2023-02-18T06:43:48;24.87;;;12.60;;
42124;SDS011;27787;44.594;11.046;2023-02-18T06:46:32;27.17;;;11.98;;
42124;SDS011;27787;44.594;11.046;2023-02-18T06:49:16;28.45;;;12.15;;
42124;SDS011;27787;44.594;11.046;2023-02-18T06:52:01;28.88;;;12.48;;
42124;SDS011;27787;44.594;11.046;2023-02-18T06:54:45;33.03;;;12.35;;
42124;SDS011;27787;44.594;11.046;2023-02-18T06:57:29;26.42;;;12.77;;
42124;SDS011;27787;44.594;11.046;2023-02-18T07:00:13;30.27;;;13.30;;
42124;SDS011;27787;44.594;11.046;2023-02-18T07:02:58;25.10;;;11.73;;
42124;SDS011;27787;44.594;11.046;2023-02-18T07:05:42;21.80;;;11.20;;
42124;SDS011;27787;44.594;11.046;2023-02-18T07:08:26;31.60;;;11.52;;
42124;SDS011;27787;44.594;11.046;2023-02-18T07:11:11;24.48;;;12.35;;
42124;SDS011;27787;44.594;11.046;2023-02-18T07:13:55;25.23;;;12.30;;
42124;SDS011;27787;44.594;11.046;2023-02-18T07:16:40;28.10;;;12.27;;
42124;SDS011;27787;44.594;11.046;2023-02-18T07:19:24;22.02;;;10.88;;
42124;SDS011;27787;44.594;11.046;2023-02-18T07:22:08;24.27;;;11.77;;
42124;SDS011;27787;44.594;11.046;2023-02-18T07:24:53;24.67;;;11.60;;
42124;SDS011;27787;44.594;11.046;2023-02-18T07:27:37;29.42;;;12.35;;
42124;SDS011;27787;44.594;11.046;2023-02-18T07:30:22;29.98;;;12.90;;
42124;SDS011;27787;44.594;11.046;2023-02-18T07:33:06;27.95;;;13.43;;
42124;SDS011;27787;44.594;11.046;2023-02-18T07:35:54;26.13;;;12.90;;
42124;SDS011;27787;44.594;11.046;2023-02-18T07:38:40;34.85;;;14.25;;
42124;SDS011;27787;44.594;11.046;2023-02-18T07:41:24;29.23;;;14.25;;
42124;SDS011;27787;44.594;11.046;2023-02-18T07:44:08;33.03;;;15.68;;
42124;SDS011;27787;44.594;11.046;2023-02-18T07:46:52;33.60;;;14.80;;
42124;SDS011;27787;44.594;11.046;2023-02-18T07:49:36;37.33;;;16.23;;
42124;SDS011;27787;44.594;11.046;2023-02-18T07:52:20;39.55;;;16.13;;
42124;SDS011;27787;44.594;11.046;2023-02-18T07:55:04;35.78;;;16.27;;
42124;SDS011;27787;44.594;11.046;2023-02-18T07:57:48;40.60;;;17.10;;
42124;SDS011;27787;44.594;11.046;2023-02-18T08:00:43;39.83;;;16.85;;
42124;SDS011;27787;44.594;11.046;2023-02-18T08:03:30;36.83;;;17.55;;
42124;SDS011;27787;44.594;11.046;2023-02-18T08:06:21;43.40;;;17.70;;
42124;SDS011;27787;44.594;11.046;2023-02-18T08:09:10;38.10;;;17.63;;
42124;SDS011;27787;44.594;11.046;2023-02-18T08:11:55;43.63;;;19.35;;
42124;SDS011;27787;44.594;11.046;2023-02-18T08:14:40;45.67;;;20.23;;
42124;SDS011;27787;44.594;11.046;2023-02-18T08:17:25;35.33;;;18.38;;
42124;SDS011;27787;44.594;11.046;2023-02-18T08:20:09;45.75;;;21.02;;
42124;SDS011;27787;44.594;11.046;2023-02-18T08:22:54;42.00;;;19.95;;
42124;SDS011;27787;44.594;11.046;2023-02-18T08:25:39;45.03;;;20.75;;
42124;SDS011;27787;44.594;11.046;2023-02-18T08:28:23;52.53;;;22.10;;
42124;SDS011;27787;44.594;11.046;2023-02-18T08:31:12;45.08;;;20.80;;
42124;SDS011;27787;44.594;11.046;2023-02-18T08:34:00;48.00;;;21.30;;
42124;SDS011;27787;44.594;11.046;2023-02-18T08:39:34;48.67;;;22.23;;
42124;SDS011;27787;44.594;11.046;2023-02-18T08:42:20;52.88;;;23.08;;
42124;SDS011;27787;44.594;11.046;2023-02-18T08:45:04;51.17;;;23.20;;
42124;SDS011;27787;44.594;11.046;2023-02-18T08:47:50;52.53;;;23.58;;
42124;SDS011;27787;44.594;11.046;2023-02-18T08:50:34;51.78;;;24.40;;
42124;SDS011;27787;44.594;11.046;2023-02-18T08:53:18;47.45;;;22.90;;
42124;SDS011;27787;44.594;11.046;2023-02-18T08:56:04;53.45;;;23.83;;
42124;SDS011;27787;44.594;11.046;2023-02-18T08:58:50;48.50;;;23.52;;
42124;SDS011;27787;44.594;11.046;2023-02-18T09:01:34;46.03;;;20.77;;
42124;SDS011;27787;44.594;11.046;2023-02-18T09:04:19;48.88;;;22.02;;
42124;SDS011;27787;44.594;11.046;2023-02-18T09:07:05;60.28;;;22.65;;
42124;SDS011;27787;44.594;11.046;2023-02-18T09:09:49;54.70;;;22.95;;
42124;SDS011;27787;44.594;11.046;2023-02-18T09:12:33;47.55;;;22.55;;
42124;SDS011;27787;44.594;11.046;2023-02-18T09:15:17;42.30;;;22.13;;
42124;SDS011;27787;44.594;11.046;2023-02-18T09:18:02;46.13;;;22.40;;
42124;SDS011;27787;44.594;11.046;2023-02-18T09:20:46;54.67;;;24.00;;
42124;SDS011;27787;44.594;11.046;2023-02-18T09:23:30;54.05;;;22.55;;
42124;SDS011;27787;44.594;11.046;2023-02-18T09:29:01;53.58;;;21.88;;
42124;SDS011;27787;44.594;11.046;2023-02-18T09:31:46;43.90;;;22.55;;
42124;SDS011;27787;44.594;11.046;2023-02-18T09:34:30;56.05;;;23.67;;
42124;SDS011;27787;44.594;11.046;2023-02-18T09:37:14;49.95;;;23.63;;
42124;SDS011;27787;44.594;11.046;2023-02-18T09:39:58;51.55;;;22.15;;
42124;SDS011;27787;44.594;11.046;2023-02-18T09:42:42;47.67;;;22.67;;
42124;SDS011;27787;44.594;11.046;2023-02-18T09:45:27;48.65;;;23.38;;
42124;SDS011;27787;44.594;11.046;2023-02-18T09:48:11;54.20;;;23.60;;
42124;SDS011;27787;44.594;11.046;2023-02-18T09:50:55;48.13;;;22.17;;
42124;SDS011;27787;44.594;11.046;2023-02-18T09:53:40;42.05;;;20.85;;
42124;SDS011;27787;44.594;11.046;2023-02-18T09:56:29;44.97;;;21.17;;
42124;SDS011;27787;44.594;11.046;2023-02-18T09:59:20;45.55;;;21.67;;
42124;SDS011;27787;44.594;11.046;2023-02-18T10:02:08;43.88;;;21.55;;
42124;SDS011;27787;44.594;11.046;2023-02-18T10:04:55;49.28;;;21.10;;
42124;SDS011;27787;44.594;11.046;2023-02-18T10:07:40;41.33;;;20.80;;
42124;SDS011;27787;44.594;11.046;2023-02-18T10:10:41;42.42;;;21.60;;
42124;SDS011;27787;44.594;11.046;2023-02-18T10:13:29;42.67;;;21.10;;
42124;SDS011;27787;44.594;11.046;2023-02-18T10:16:16;45.42;;;22.85;;
42124;SDS011;27787;44.594;11.046;2023-02-18T10:22:13;39.95;;;20.50;;
42124;SDS011;27787;44.594;11.046;2023-02-18T10:27:45;39.40;;;19.63;;
42124;SDS011;27787;44.594;11.046;2023-02-18T10:30:33;43.13;;;20.83;;
42124;SDS011;27787;44.594;11.046;2023-02-18T10:51:57;40.88;;;20.65;;
42124;SDS011;27787;44.594;11.046;2023-02-18T10:57:34;38.25;;;18.77;;
42124;SDS011;27787;44.594;11.046;2023-02-18T11:00:33;41.53;;;18.58;;
42124;SDS011;27787;44.594;11.046;2023-02-18T11:03:41;36.08;;;18.65;;
42124;SDS011;27787;44.594;11.046;2023-02-18T11:09:28;33.20;;;15.43;;
42124;SDS011;27787;44.594;11.046;2023-02-18T11:12:18;34.55;;;18.38;;
42124;SDS011;27787;44.594;11.046;2023-02-18T11:17:57;33.47;;;16.48;;
42124;SDS011;27787;44.594;11.046;2023-02-18T11:21:01;32.50;;;16.45;;
42124;SDS011;27787;44.594;11.046;2023-02-18T11:24:07;33.72;;;18.27;;
42124;SDS011;27787;44.594;11.046;2023-02-18T11:26:58;35.08;;;17.65;;
42124;SDS011;27787;44.594;11.046;2023-02-18T11:29:42;32.92;;;17.15;;
42124;SDS011;27787;44.594;11.046;2023-02-18T11:32:27;34.03;;;16.88;;
42124;SDS011;27787;44.594;11.046;2023-02-18T11:35:19;33.42;;;17.33;;
42124;SDS011;27787;44.594;11.046;2023-02-18T11:38:13;30.90;;;16.35;;
42124;SDS011;27787;44.594;11.046;2023-02-18T11:41:15;33.95;;;17.80;;
42124;SDS011;27787;44.594;11.046;2023-02-18T11:44:03;32.25;;;16.70;;
42124;SDS011;27787;44.594;11.046;2023-02-18T11:47:04;34.92;;;18.08;;
42124;SDS011;27787;44.594;11.046;2023-02-18T11:52:52;35.35;;;16.23;;
42124;SDS011;27787;44.594;11.046;2023-02-18T11:55:40;33.38;;;16.25;;
42124;SDS011;27787;44.594;11.046;2023-02-18T11:58:40;36.92;;;17.83;;
42124;SDS011;27787;44.594;11.046;2023-02-18T12:04:11;28.00;;;15.20;;
42124;SDS011;27787;44.594;11.046;2023-02-18T12:09:49;33.35;;;16.73;;
42124;SDS011;27787;44.594;11.046;2023-02-18T12:13:13;35.47;;;16.67;;
42124;SDS011;27787;44.594;11.046;2023-02-18T12:16:08;33.30;;;16.40;;
42124;SDS011;27787;44.594;11.046;2023-02-18T12:21:47;39.42;;;17.52;;
42124;SDS011;27787;44.594;11.046;2023-02-18T12:48:39;40.10;;;17.80;;
42124;SDS011;27787;44.594;11.046;2023-02-18T13:16:04;39.65;;;18.35;;
42124;SDS011;27787;44.594;11.046;2023-02-18T13:21:58;36.08;;;19.95;;
42124;SDS011;27787;44.594;11.046;2023-02-18T13:24:47;39.72;;;20.30;;
42124;SDS011;27787;44.594;11.046;2023-02-18T13:27:40;39.78;;;20.85;;
42124;SDS011;27787;44.594;11.046;2023-02-18T13:30:33;36.00;;;18.75;;
42124;SDS011;27787;44.594;11.046;2023-02-18T13:36:43;35.22;;;19.70;;
42124;SDS011;27787;44.594;11.046;2023-02-18T13:39:36;35.13;;;19.92;;
42124;SDS011;27787;44.594;11.046;2023-02-18T13:45:23;35.97;;;19.10;;
42124;SDS011;27787;44.594;11.046;2023-02-18T13:48:20;35.65;;;19.45;;
42124;SDS011;27787;44.594;11.046;2023-02-18T13:51:09;37.50;;;19.02;;
42124;SDS011;27787;44.594;11.046;2023-02-18T13:54:20;38.08;;;19.63;;
42124;SDS011;27787;44.594;11.046;2023-02-18T13:57:15;37.58;;;18.75;;
42124;SDS011;27787;44.594;11.046;2023-02-18T14:00:04;37.67;;;18.27;;
42124;SDS011;27787;44.594;11.046;2023-02-18T14:02:59;36.95;;;18.67;;
42124;SDS011;27787;44.594;11.046;2023-02-18T14:05:45;34.88;;;18.77;;
42124;SDS011;27787;44.594;11.046;2023-02-18T14:08:34;32.15;;;17.85;;
42124;SDS011;27787;44.594;11.046;2023-02-18T14:28:59;36.25;;;17.08;;
42124;SDS011;27787;44.594;11.046;2023-02-18T14:32:00;35.05;;;18.00;;
42124;SDS011;27787;44.594;11.046;2023-02-18T14:50:35;32.35;;;17.52;;
42124;SDS011;27787;44.594;11.046;2023-02-18T14:53:22;33.97;;;17.58;;
42124;SDS011;27787;44.594;11.046;2023-02-18T14:56:09;29.20;;;16.33;;
42124;SDS011;27787;44.594;11.046;2023-02-18T14:58:57;33.20;;;17.77;;
42124;SDS011;27787;44.594;11.046;2023-02-18T15:01:45;32.92;;;17.67;;
42124;SDS011;27787;44.594;11.046;2023-02-18T15:04:31;38.97;;;19.52;;
42124;SDS011;27787;44.594;11.046;2023-02-18T15:07:17;35.95;;;18.70;;
42124;SDS011;27787;44.594;11.046;2023-02-18T15:10:03;31.02;;;17.15;;
42124;SDS011;27787;44.594;11.046;2023-02-18T15:12:48;35.30;;;19.48;;
42124;SDS011;27787;44.594;11.046;2023-02-18T15:15:32;38.58;;;18.17;;
42124;SDS011;27787;44.594;11.046;2023-02-18T15:21:27;36.17;;;18.02;;
42124;SDS011;27787;44.594;11.046;2023-02-18T15:33:09;34.70;;;19.35;;
42124;SDS011;27787;44.594;11.046;2023-02-18T15:36:03;39.35;;;19.98;;
42124;SDS011;27787;44.594;11.046;2023-02-18T15:38:49;36.00;;;20.50;;
42124;SDS011;27787;44.594;11.046;2023-02-18T15:41:33;44.20;;;21.10;;
42124;SDS011;27787;44.594;11.046;2023-02-18T15:44:19;34.97;;;20.05;;
42124;SDS011;27787;44.594;11.046;2023-02-18T15:47:07;37.25;;;20.60;;
42124;SDS011;27787;44.594;11.046;2023-02-18T15:49:53;39.80;;;20.25;;
42124;SDS011;27787;44.594;11.046;2023-02-18T15:52:39;44.10;;;21.92;;
42124;SDS011;27787;44.594;11.046;2023-02-18T15:55:31;41.83;;;20.60;;
42124;SDS011;27787;44.594;11.046;2023-02-18T16:01:06;37.40;;;20.67;;
42124;SDS011;27787;44.594;11.046;2023-02-18T16:03:50;40.22;;;21.50;;
42124;SDS011;27787;44.594;11.046;2023-02-18T16:06:36;40.67;;;21.58;;
42124;SDS011;27787;44.594;11.046;2023-02-18T16:09:25;40.45;;;21.60;;
42124;SDS011;27787;44.594;11.046;2023-02-18T16:12:17;44.00;;;21.73;;
42124;SDS011;27787;44.594;11.046;2023-02-18T16:15:18;43.70;;;22.90;;
42124;SDS011;27787;44.594;11.046;2023-02-18T16:24:02;49.35;;;23.73;;
42124;SDS011;27787;44.594;11.046;2023-02-18T16:26:48;48.90;;;25.05;;
42124;SDS011;27787;44.594;11.046;2023-02-18T16:29:34;49.97;;;24.83;;
42124;SDS011;27787;44.594;11.046;2023-02-18T16:32:23;51.28;;;24.15;;
42124;SDS011;27787;44.594;11.046;2023-02-18T16:35:07;44.63;;;22.88;;
42124;SDS011;27787;44.594;11.046;2023-02-18T16:37:54;48.28;;;24.10;;
42124;SDS011;27787;44.594;11.046;2023-02-18T16:40:40;46.90;;;23.38;;
42124;SDS011;27787;44.594;11.046;2023-02-18T16:43:25;45.72;;;22.40;;
42124;SDS011;27787;44.594;11.046;2023-02-18T16:46:18;47.13;;;23.10;;
42124;SDS011;27787;44.594;11.046;2023-02-18T16:49:05;48.55;;;23.80;;
42124;SDS011;27787;44.594;11.046;2023-02-18T16:51:49;53.30;;;24.45;;
42124;SDS011;27787;44.594;11.046;2023-02-18T16:54:33;46.33;;;24.40;;
42124;SDS011;27787;44.594;11.046;2023-02-18T16:57:18;49.75;;;24.67;;
42124;SDS011;27787;44.594;11.046;2023-02-18T17:00:01;56.17;;;27.40;;
42124;SDS011;27787;44.594;11.046;2023-02-18T17:02:50;54.80;;;25.83;;
42124;SDS011;27787;44.594;11.046;2023-02-18T17:05:37;49.10;;;25.15;;
42124;SDS011;27787;44.594;11.046;2023-02-18T17:08:24;50.25;;;25.95;;
42124;SDS011;27787;44.594;11.046;2023-02-18T17:11:14;52.75;;;26.83;;
42124;SDS011;27787;44.594;11.046;2023-02-18T17:14:08;53.22;;;25.02;;
42124;SDS011;27787;44.594;11.046;2023-02-18T17:16:56;52.95;;;26.15;;
42124;SDS011;27787;44.594;11.046;2023-02-18T17:19:41;70.95;;;25.48;;
42124;SDS011;27787;44.594;11.046;2023-02-18T17:22:25;54.72;;;25.90;;
42124;SDS011;27787;44.594;11.046;2023-02-18T17:25:19;55.55;;;26.65;;
42124;SDS011;27787;44.594;11.046;2023-02-18T17:28:05;53.33;;;25.23;;
42124;SDS011;27787;44.594;11.046;2023-02-18T17:30:53;57.08;;;27.25;;
42124;SDS011;27787;44.594;11.046;2023-02-18T17:33:39;58.22;;;26.38;;
42124;SDS011;27787;44.594;11.046;2023-02-18T17:36:25;55.50;;;26.20;;
42124;SDS011;27787;44.594;11.046;2023-02-18T17:39:13;55.92;;;27.80;;
42124;SDS011;27787;44.594;11.046;2023-02-18T17:41:58;57.60;;;27.67;;
42124;SDS011;27787;44.594;11.046;2023-02-18T17:44:42;57.42;;;27.35;;
42124;SDS011;27787;44.594;11.046;2023-02-18T17:47:26;61.63;;;29.10;;
42124;SDS011;27787;44.594;11.046;2023-02-18T17:50:10;57.15;;;28.17;;
42124;SDS011;27787;44.594;11.046;2023-02-18T17:52:54;57.60;;;28.40;;
42124;SDS011;27787;44.594;11.046;2023-02-18T17:55:38;58.80;;;29.08;;
42124;SDS011;27787;44.594;11.046;2023-02-18T17:58:25;59.03;;;29.80;;
42124;SDS011;27787;44.594;11.046;2023-02-18T18:01:10;63.00;;;29.77;;
42124;SDS011;27787;44.594;11.046;2023-02-18T18:03:54;65.55;;;29.92;;
42124;SDS011;27787;44.594;11.046;2023-02-18T18:06:38;67.75;;;30.65;;
42124;SDS011;27787;44.594;11.046;2023-02-18T18:09:22;61.90;;;30.45;;
42124;SDS011;27787;44.594;11.046;2023-02-18T18:12:14;64.95;;;30.50;;
42124;SDS011;27787;44.594;11.046;2023-02-18T18:14:59;67.18;;;30.42;;
42124;SDS011;27787;44.594;11.046;2023-02-18T18:17:45;63.08;;;29.35;;
42124;SDS011;27787;44.594;11.046;2023-02-18T18:20:30;62.45;;;29.17;;
42124;SDS011;27787;44.594;11.046;2023-02-18T18:23:16;65.95;;;30.45;;
42124;SDS011;27787;44.594;11.046;2023-02-18T18:26:03;69.97;;;31.30;;
42124;SDS011;27787;44.594;11.046;2023-02-18T18:28:49;69.80;;;31.25;;
42124;SDS011;27787;44.594;11.046;2023-02-18T18:31:33;71.03;;;32.83;;
42124;SDS011;27787;44.594;11.046;2023-02-18T18:34:19;68.55;;;30.90;;
42124;SDS011;27787;44.594;11.046;2023-02-18T18:37:04;64.18;;;31.20;;
42124;SDS011;27787;44.594;11.046;2023-02-18T18:39:47;61.50;;;29.88;;
42124;SDS011;27787;44.594;11.046;2023-02-18T18:42:31;68.90;;;30.55;;
42124;SDS011;27787;44.594;11.046;2023-02-18T18:45:17;61.05;;;29.65;;
42124;SDS011;27787;44.594;11.046;2023-02-18T18:48:08;60.97;;;27.95;;
42124;SDS011;27787;44.594;11.046;2023-02-18T18:50:52;63.42;;;28.42;;
42124;SDS011;27787;44.594;11.046;2023-02-18T18:53:37;60.63;;;28.47;;
42124;SDS011;27787;44.594;11.046;2023-02-18T18:56:21;61.35;;;28.00;;
42124;SDS011;27787;44.594;11.046;2023-02-18T18:59:05;60.92;;;28.27;;
42124;SDS011;27787;44.594;11.046;2023-02-18T19:01:51;56.88;;;27.52;;
42124;SDS011;27787;44.594;11.046;2023-02-18T19:04:36;67.07;;;29.38;;
42124;SDS011;27787;44.594;11.046;2023-02-18T19:07:20;68.95;;;30.30;;
42124;SDS011;27787;44.594;11.046;2023-02-18T19:10:04;63.60;;;28.77;;
42124;SDS011;27787;44.594;11.046;2023-02-18T19:12:48;64.68;;;29.58;;
42124;SDS011;27787;44.594;11.046;2023-02-18T19:15:33;58.10;;;27.60;;
42124;SDS011;27787;44.594;11.046;2023-02-18T19:18:18;60.87;;;27.27;;
42124;SDS011;27787;44.594;11.046;2023-02-18T19:21:04;62.97;;;28.73;;
42124;SDS011;27787;44.594;11.046;2023-02-18T19:23:48;59.95;;;28.40;;
42124;SDS011;27787;44.594;11.046;2023-02-18T19:26:32;68.93;;;29.42;;
42124;SDS011;27787;44.594;11.046;2023-02-18T19:29:16;68.50;;;29.65;;
42124;SDS011;27787;44.594;11.046;2023-02-18T19:32:02;67.63;;;29.17;;
42124;SDS011;27787;44.594;11.046;2023-02-18T19:34:46;62.60;;;27.67;;
42124;SDS011;27787;44.594;11.046;2023-02-18T19:37:31;66.78;;;29.83;;
42124;SDS011;27787;44.594;11.046;2023-02-18T19:40:20;67.97;;;29.75;;